sensor_id;sensor_type;location;lat;lon;timestamp;pressure;altitude;pressure_sealevel;temperature;humidity
41102;BME280;26845;50.190;19.178;2023-05-10T00:01:43;98934.05;;;7.79;54.14
41102;BME280;26845;50.190;19.178;2023-05-10T00:04:17;98932.11;;;7.80;54.36
41102;BME280;26845;50.190;19.178;2023-05-10T00:06:51;98933.00;;;7.78;54.43
41102;BME280;26845;50.190;19.178;2023-05-10T00:24:47;98931.33;;;7.47;55.27
41102;BME280;26845;50.190;19.178;2023-05-10T00:27:20;98932.84;;;7.45;55.17
41102;BME280;26845;50.190;19.178;2023-05-10T00:35:01;98921.58;;;7.29;55.74
41102;BME280;26845;50.190;19.178;2023-05-10T00:40:09;98919.88;;;7.20;56.11
41102;BME280;26845;50.190;19.178;2023-05-10T00:42:42;98919.83;;;7.15;56.41
41102;BME280;26845;50.190;19.178;2023-05-10T00:45:16;98910.66;;;7.13;56.58
41102;BME280;26845;50.190;19.178;2023-05-10T00:47:50;98911.05;;;7.07;56.50
41102;BME280;26845;50.190;19.178;2023-05-10T00:53:00;98911.98;;;7.03;56.70
41102;BME280;26845;50.190;19.178;2023-05-10T00:55:31;98910.80;;;6.95;56.70
41102;BME280;26845;50.190;19.178;2023-05-10T00:58:04;98912.73;;;6.87;56.60
41102;BME280;26845;50.190;19.178;2023-05-10T01:00:38;98912.80;;;6.79;57.05
41102;BME280;26845;50.190;19.178;2023-05-10T01:03:12;98910.92;;;6.66;57.11
41102;BME280;26845;50.190;19.178;2023-05-10T01:05:45;98907.97;;;6.63;57.28
41102;BME280;26845;50.190;19.178;2023-05-10T01:08:19;98904.84;;;6.59;57.18
41102;BME280;26845;50.190;19.178;2023-05-10T01:10:53;98904.39;;;6.54;57.37
41102;BME280;26845;50.190;19.178;2023-05-10T01:13:31;98900.58;;;6.46;57.57
41102;BME280;26845;50.190;19.178;2023-05-10T01:35:10;98895.06;;;6.22;58.38
41102;BME280;26845;50.190;19.178;2023-05-10T01:37:42;98893.75;;;6.10;58.45
41102;BME280;26845;50.190;19.178;2023-05-10T02:24:05;98853.80;;;5.58;60.22
41102;BME280;26845;50.190;19.178;2023-05-10T02:36:55;98857.83;;;5.58;60.78
41102;BME280;26845;50.190;19.178;2023-05-10T02:54:52;98851.00;;;5.75;61.29
41102;BME280;26845;50.190;19.178;2023-05-10T02:57:28;98857.59;;;5.79;61.03
41102;BME280;26845;50.190;19.178;2023-05-10T03:02:32;98858.65;;;5.79;60.77
41102;BME280;26845;50.190;19.178;2023-05-10T03:05:05;98862.29;;;5.77;61.00
41102;BME280;26845;50.190;19.178;2023-05-10T03:07:39;98861.31;;;5.73;61.02
41102;BME280;26845;50.190;19.178;2023-05-10T03:20:59;98855.91;;;5.64;61.09
41102;BME280;26845;50.190;19.178;2023-05-10T03:23:35;98858.72;;;5.64;61.25
41102;BME280;26845;50.190;19.178;2023-05-10T03:26:06;98860.54;;;5.64;61.07
41102;BME280;26845;50.190;19.178;2023-05-10T03:28:39;98864.23;;;5.64;61.30
41102;BME280;26845;50.190;19.178;2023-05-10T03:36:23;98858.86;;;5.68;61.73
41102;BME280;26845;50.190;19.178;2023-05-10T03:38:57;98861.73;;;5.68;61.84
41102;BME280;26845;50.190;19.178;2023-05-10T04:08:51;98852.66;;;5.97;62.53
41102;BME280;26845;50.190;19.178;2023-05-10T04:14:30;98852.20;;;6.03;62.50
41102;BME280;26845;50.190;19.178;2023-05-10T04:17:10;98851.67;;;6.06;62.79
41102;BME280;26845;50.190;19.178;2023-05-10T04:22:49;98854.00;;;6.12;62.81
41102;BME280;26845;50.190;19.178;2023-05-10T04:25:29;98852.58;;;6.19;63.16
41102;BME280;26845;50.190;19.178;2023-05-10T04:28:09;98858.95;;;6.25;63.07
41102;BME280;26845;50.190;19.178;2023-05-10T04:30:49;98859.85;;;6.35;63.26
41102;BME280;26845;50.190;19.178;2023-05-10T04:33:29;98858.16;;;6.42;63.61
41102;BME280;26845;50.190;19.178;2023-05-10T04:44:47;98852.67;;;6.49;63.97
41102;BME280;26845;50.190;19.178;2023-05-10T04:47:27;98852.92;;;6.51;64.06
41102;BME280;26845;50.190;19.178;2023-05-10T04:50:07;98854.11;;;6.48;64.05
41102;BME280;26845;50.190;19.178;2023-05-10T04:52:47;98857.91;;;6.58;64.14
41102;BME280;26845;50.190;19.178;2023-05-10T04:55:27;98856.36;;;6.71;64.49
41102;BME280;26845;50.190;19.178;2023-05-10T04:58:07;98855.05;;;6.82;64.25
41102;BME280;26845;50.190;19.178;2023-05-10T05:06:44;98844.29;;;7.31;64.22
41102;BME280;26845;50.190;19.178;2023-05-10T05:09:25;98845.17;;;7.55;64.06
41102;BME280;26845;50.190;19.178;2023-05-10T05:12:05;98844.64;;;7.75;64.33
41102;BME280;26845;50.190;19.178;2023-05-10T05:17:44;98831.16;;;8.11;64.16
41102;BME280;26845;50.190;19.178;2023-05-10T05:20:24;98835.08;;;8.30;63.61
41102;BME280;26845;50.190;19.178;2023-05-10T05:23:04;98828.36;;;8.49;63.68
41102;BME280;26845;50.190;19.178;2023-05-10T05:25:44;98826.20;;;8.66;63.40
41102;BME280;26845;50.190;19.178;2023-05-10T05:28:24;98834.70;;;8.86;63.61
41102;BME280;26845;50.190;19.178;2023-05-10T05:31:04;98828.09;;;9.06;63.07
41102;BME280;26845;50.190;19.178;2023-05-10T05:33:44;98826.42;;;9.26;63.31
41102;BME280;26845;50.190;19.178;2023-05-10T05:39:23;98830.48;;;9.74;63.02
41102;BME280;26845;50.190;19.178;2023-05-10T05:42:03;98823.73;;;9.98;62.80
41102;BME280;26845;50.190;19.178;2023-05-10T05:47:23;98834.67;;;10.44;62.17
41102;BME280;26845;50.190;19.178;2023-05-10T05:56:19;98828.32;;;11.10;60.99
41102;BME280;26845;50.190;19.178;2023-05-10T05:59:19;98828.54;;;11.30;60.84
41102;BME280;26845;50.190;19.178;2023-05-10T06:01:59;98827.22;;;11.52;61.21
41102;BME280;26845;50.190;19.178;2023-05-10T06:04:39;98826.52;;;11.70;60.59
41102;BME280;26845;50.190;19.178;2023-05-10T06:07:19;98820.96;;;11.96;60.46
41102;BME280;26845;50.190;19.178;2023-05-10T06:10:17;98819.44;;;12.24;60.33
41102;BME280;26845;50.190;19.178;2023-05-10T06:12:58;98824.03;;;12.45;59.82
41102;BME280;26845;50.190;19.178;2023-05-10T06:15:57;98815.11;;;12.70;60.27
41102;BME280;26845;50.190;19.178;2023-05-10T06:18:55;98816.73;;;13.01;60.12
41102;BME280;26845;50.190;19.178;2023-05-10T06:21:36;98820.85;;;13.31;59.72
41102;BME280;26845;50.190;19.178;2023-05-10T06:30:32;98823.23;;;13.84;57.91
41102;BME280;26845;50.190;19.178;2023-05-10T06:33:32;98824.52;;;13.98;57.05
41102;BME280;26845;50.190;19.178;2023-05-10T06:36:12;98823.11;;;14.04;56.53
41102;BME280;26845;50.190;19.178;2023-05-10T06:44:49;98816.86;;;14.75;55.54
41102;BME280;26845;50.190;19.178;2023-05-10T06:47:55;98814.81;;;14.89;56.32
41102;BME280;26845;50.190;19.178;2023-05-10T06:51:01;98814.19;;;15.17;55.83
41102;BME280;26845;50.190;19.178;2023-05-10T07:01:39;98802.06;;;16.04;54.22
41102;BME280;26845;50.190;19.178;2023-05-10T07:04:23;98806.09;;;16.18;54.20
41102;BME280;26845;50.190;19.178;2023-05-10T07:06:56;98806.05;;;16.29;53.35
41102;BME280;26845;50.190;19.178;2023-05-10T07:09:30;98799.71;;;16.48;53.59
41102;BME280;26845;50.190;19.178;2023-05-10T07:12:07;98799.16;;;16.60;52.98
41102;BME280;26845;50.190;19.178;2023-05-10T07:14:46;98796.05;;;16.80;52.96
41102;BME280;26845;50.190;19.178;2023-05-10T07:17:20;98795.96;;;16.91;51.99
41102;BME280;26845;50.190;19.178;2023-05-10T07:19:54;98790.30;;;17.13;53.20
41102;BME280;26845;50.190;19.178;2023-05-10T07:23:00;98792.69;;;17.37;51.88
41102;BME280;26845;50.190;19.178;2023-05-10T07:26:06;98796.11;;;17.53;51.24
41102;BME280;26845;50.190;19.178;2023-05-10T07:29:11;98797.00;;;17.73;50.61
41102;BME280;26845;50.190;19.178;2023-05-10T07:32:17;98792.55;;;17.83;49.37
41102;BME280;26845;50.190;19.178;2023-05-10T07:35:14;98792.86;;;17.83;49.35
41102;BME280;26845;50.190;19.178;2023-05-10T07:38:11;98789.98;;;18.00;50.01
41102;BME280;26845;50.190;19.178;2023-05-10T07:40:50;98789.50;;;18.29;49.48
41102;BME280;26845;50.190;19.178;2023-05-10T07:43:56;98789.02;;;18.48;48.31
41102;BME280;26845;50.190;19.178;2023-05-10T07:47:02;98788.14;;;18.53;47.79
41102;BME280;26845;50.190;19.178;2023-05-10T07:50:08;98786.88;;;18.62;46.03
41102;BME280;26845;50.190;19.178;2023-05-10T07:53:16;98788.39;;;18.53;45.37
41102;BME280;26845;50.190;19.178;2023-05-10T07:56:25;98784.98;;;18.44;45.39
41102;BME280;26845;50.190;19.178;2023-05-10T07:58:58;98784.61;;;18.69;45.06
41102;BME280;26845;50.190;19.178;2023-05-10T08:01:32;98782.21;;;18.81;44.93
41102;BME280;26845;50.190;19.178;2023-05-10T08:04:08;98779.64;;;18.89;44.22
41102;BME280;26845;50.190;19.178;2023-05-10T08:06:39;98782.04;;;19.06;44.48
41102;BME280;26845;50.190;19.178;2023-05-10T08:09:45;98777.42;;;19.22;43.32
41102;BME280;26845;50.190;19.178;2023-05-10T08:12:51;98776.23;;;19.23;43.24
41102;BME280;26845;50.190;19.178;2023-05-10T08:15:56;98775.63;;;19.29;42.02
41102;BME280;26845;50.190;19.178;2023-05-10T08:19:04;98775.53;;;19.33;42.68
41102;BME280;26845;50.190;19.178;2023-05-10T08:22:09;98771.94;;;19.55;41.82
41102;BME280;26845;50.190;19.178;2023-05-10T08:25:15;98774.39;;;19.75;42.57
41102;BME280;26845;50.190;19.178;2023-05-10T08:28:21;98771.02;;;20.14;42.21
41102;BME280;26845;50.190;19.178;2023-05-10T08:31:26;98771.43;;;20.26;40.86
41102;BME280;26845;50.190;19.178;2023-05-10T08:34:32;98770.59;;;20.35;41.00
41102;BME280;26845;50.190;19.178;2023-05-10T08:37:10;98768.96;;;20.54;40.66
41102;BME280;26845;50.190;19.178;2023-05-10T08:39:44;98768.75;;;20.67;39.99
41102;BME280;26845;50.190;19.178;2023-05-10T08:42:58;98773.94;;;20.69;40.06
41102;BME280;26845;50.190;19.178;2023-05-10T08:45:59;98766.08;;;20.88;39.21
41102;BME280;26845;50.190;19.178;2023-05-10T08:49:03;98770.75;;;20.87;38.76
41102;BME280;26845;50.190;19.178;2023-05-10T08:52:08;98767.64;;;20.82;38.30
41102;BME280;26845;50.190;19.178;2023-05-10T08:55:13;98765.59;;;20.80;37.30
41102;BME280;26845;50.190;19.178;2023-05-10T08:58:19;98765.61;;;20.97;38.05
41102;BME280;26845;50.190;19.178;2023-05-10T09:01:24;98767.81;;;21.24;37.71
41102;BME280;26845;50.190;19.178;2023-05-10T09:04:29;98773.94;;;21.37;37.47
41102;BME280;26845;50.190;19.178;2023-05-10T09:07:34;98773.27;;;21.53;37.59
41102;BME280;26845;50.190;19.178;2023-05-10T09:10:40;98773.05;;;21.75;37.12
41102;BME280;26845;50.190;19.178;2023-05-10T09:13:45;98770.66;;;21.89;36.63
41102;BME280;26845;50.190;19.178;2023-05-10T09:16:50;98764.36;;;21.92;36.42
41102;BME280;26845;50.190;19.178;2023-05-10T09:19:51;98761.27;;;21.77;34.99
41102;BME280;26845;50.190;19.178;2023-05-10T09:22:26;98766.04;;;21.67;36.16
41102;BME280;26845;50.190;19.178;2023-05-10T09:25:12;98771.60;;;21.75;35.44
41102;BME280;26845;50.190;19.178;2023-05-10T09:28:11;98770.11;;;21.82;35.08
41102;BME280;26845;50.190;19.178;2023-05-10T09:31:17;98760.83;;;21.62;34.34
41102;BME280;26845;50.190;19.178;2023-05-10T09:33:51;98768.00;;;21.49;35.29
41102;BME280;26845;50.190;19.178;2023-05-10T09:36:25;98763.51;;;21.53;34.78
41102;BME280;26845;50.190;19.178;2023-05-10T09:39:17;98763.06;;;21.59;35.56
41102;BME280;26845;50.190;19.178;2023-05-10T09:42:14;98759.38;;;21.95;35.60
41102;BME280;26845;50.190;19.178;2023-05-10T09:44:47;98767.94;;;22.09;34.27
41102;BME280;26845;50.190;19.178;2023-05-10T09:47:21;98756.41;;;22.12;34.14
41102;BME280;26845;50.190;19.178;2023-05-10T09:49:55;98754.67;;;22.31;35.10
41102;BME280;26845;50.190;19.178;2023-05-10T09:52:47;98753.43;;;22.64;34.17
41102;BME280;26845;50.190;19.178;2023-05-10T09:55:39;98751.48;;;22.61;34.41
41102;BME280;26845;50.190;19.178;2023-05-10T09:58:42;98757.61;;;22.39;32.25
41102;BME280;26845;50.190;19.178;2023-05-10T10:01:39;98752.82;;;22.31;33.86
41102;BME280;26845;50.190;19.178;2023-05-10T10:04:39;98751.92;;;22.33;33.42
41102;BME280;26845;50.190;19.178;2023-05-10T10:07:41;98748.89;;;22.43;34.32
41102;BME280;26845;50.190;19.178;2023-05-10T10:10:47;98742.70;;;22.75;33.37
41102;BME280;26845;50.190;19.178;2023-05-10T10:13:53;98740.54;;;23.01;32.81
41102;BME280;26845;50.190;19.178;2023-05-10T10:16:47;98742.52;;;22.90;31.82
41102;BME280;26845;50.190;19.178;2023-05-10T10:19:53;98738.00;;;22.79;32.77
41102;BME280;26845;50.190;19.178;2023-05-10T10:22:33;98735.59;;;22.98;33.07
41102;BME280;26845;50.190;19.178;2023-05-10T10:25:27;98733.66;;;23.15;32.80
41102;BME280;26845;50.190;19.178;2023-05-10T10:28:41;98733.28;;;23.33;32.76
41102;BME280;26845;50.190;19.178;2023-05-10T10:34:57;98723.88;;;23.18;31.72
41102;BME280;26845;50.190;19.178;2023-05-10T10:37:55;98724.75;;;23.07;32.00
41102;BME280;26845;50.190;19.178;2023-05-10T10:40:44;98724.19;;;23.04;31.96
41102;BME280;26845;50.190;19.178;2023-05-10T10:43:27;98713.98;;;23.16;32.06
41102;BME280;26845;50.190;19.178;2023-05-10T10:46:35;98715.13;;;23.20;31.56
41102;BME280;26845;50.190;19.178;2023-05-10T10:49:51;98708.24;;;23.27;32.35
41102;BME280;26845;50.190;19.178;2023-05-10T10:52:47;98707.92;;;23.55;32.42
41102;BME280;26845;50.190;19.178;2023-05-10T10:55:48;98704.50;;;23.65;30.95
41102;BME280;26845;50.190;19.178;2023-05-10T10:58:56;98696.64;;;23.61;31.68
41102;BME280;26845;50.190;19.178;2023-05-10T11:01:59;98699.15;;;23.65;30.45
41102;BME280;26845;50.190;19.178;2023-05-10T11:05:23;98695.27;;;23.66;31.74
41102;BME280;26845;50.190;19.178;2023-05-10T11:08:17;98692.73;;;23.85;31.40
41102;BME280;26845;50.190;19.178;2023-05-10T11:11:21;98692.54;;;24.01;31.41
41102;BME280;26845;50.190;19.178;2023-05-10T11:14:27;98695.09;;;24.37;30.89
41102;BME280;26845;50.190;19.178;2023-05-10T11:17:34;98684.30;;;24.56;31.50
41102;BME280;26845;50.190;19.178;2023-05-10T11:20:38;98687.63;;;24.57;31.13
41102;BME280;26845;50.190;19.178;2023-05-10T11:23:48;98688.36;;;24.57;30.40
41102;BME280;26845;50.190;19.178;2023-05-10T11:26:52;98684.50;;;24.48;30.48
41102;BME280;26845;50.190;19.178;2023-05-10T11:29:33;98688.52;;;24.36;30.66
41102;BME280;26845;50.190;19.178;2023-05-10T11:32:39;98690.55;;;24.56;30.36
41102;BME280;26845;50.190;19.178;2023-05-10T11:35:45;98681.43;;;24.63;30.70
41102;BME280;26845;50.190;19.178;2023-05-10T11:38:52;98676.73;;;24.89;30.29
41102;BME280;26845;50.190;19.178;2023-05-10T11:41:58;98679.31;;;25.01;29.80
41102;BME280;26845;50.190;19.178;2023-05-10T11:45:07;98676.23;;;24.88;30.27
41102;BME280;26845;50.190;19.178;2023-05-10T11:48:13;98667.66;;;24.83;30.17
41102;BME280;26845;50.190;19.178;2023-05-10T11:50:55;98668.45;;;24.99;30.64
41102;BME280;26845;50.190;19.178;2023-05-10T11:54:01;98670.34;;;24.94;28.88
41102;BME280;26845;50.190;19.178;2023-05-10T11:57:07;98676.00;;;24.77;29.32
41102;BME280;26845;50.190;19.178;2023-05-10T12:00:13;98670.56;;;24.86;30.13
41102;BME280;26845;50.190;19.178;2023-05-10T12:03:18;98667.70;;;25.24;30.27
41102;BME280;26845;50.190;19.178;2023-05-10T12:05:53;98670.67;;;25.48;29.75
41102;BME280;26845;50.190;19.178;2023-05-10T12:08:27;98674.30;;;25.52;29.19
41102;BME280;26845;50.190;19.178;2023-05-10T12:11:32;98673.29;;;25.64;29.33
41102;BME280;26845;50.190;19.178;2023-05-10T12:14:37;98673.15;;;25.70;28.84
41102;BME280;26845;50.190;19.178;2023-05-10T12:17:34;98669.40;;;25.61;29.51
41102;BME280;26845;50.190;19.178;2023-05-10T12:20:39;98660.15;;;25.68;28.29
41102;BME280;26845;50.190;19.178;2023-05-10T12:23:45;98663.27;;;25.32;28.69
41102;BME280;26845;50.190;19.178;2023-05-10T12:26:50;98669.17;;;25.24;28.67
41102;BME280;26845;50.190;19.178;2023-05-10T12:29:55;98670.88;;;24.91;28.82
41102;BME280;26845;50.190;19.178;2023-05-10T12:33:01;98660.94;;;24.34;28.40
41102;BME280;26845;50.190;19.178;2023-05-10T12:36:14;98648.52;;;24.20;28.55
41102;BME280;26845;50.190;19.178;2023-05-10T12:39:16;98664.71;;;24.24;28.59
41102;BME280;26845;50.190;19.178;2023-05-10T12:42:21;98655.96;;;24.26;28.21
41102;BME280;26845;50.190;19.178;2023-05-10T12:45:26;98658.48;;;24.40;29.25
41102;BME280;26845;50.190;19.178;2023-05-10T12:48:32;98653.85;;;24.71;29.03
41102;BME280;26845;50.190;19.178;2023-05-10T12:51:23;98653.74;;;24.77;28.38
41102;BME280;26845;50.190;19.178;2023-05-10T12:54:29;98647.10;;;24.73;28.64
41102;BME280;26845;50.190;19.178;2023-05-10T12:57:30;98648.69;;;25.02;28.78
41102;BME280;26845;50.190;19.178;2023-05-10T13:00:22;98648.58;;;25.21;28.74
41102;BME280;26845;50.190;19.178;2023-05-10T13:03:27;98645.39;;;25.31;28.24
41102;BME280;26845;50.190;19.178;2023-05-10T13:06:32;98643.74;;;25.13;28.19
41102;BME280;26845;50.190;19.178;2023-05-10T13:09:34;98640.63;;;24.84;28.31
41102;BME280;26845;50.190;19.178;2023-05-10T13:12:09;98640.38;;;24.83;27.93
41102;BME280;26845;50.190;19.178;2023-05-10T13:14:43;98637.98;;;24.80;27.98
41102;BME280;26845;50.190;19.178;2023-05-10T13:17:17;98633.63;;;24.97;28.18
41102;BME280;26845;50.190;19.178;2023-05-10T13:19:50;98634.44;;;25.07;27.96
41102;BME280;26845;50.190;19.178;2023-05-10T13:22:24;98627.92;;;25.31;27.91
41102;BME280;26845;50.190;19.178;2023-05-10T13:25:07;98627.33;;;25.34;28.07
41102;BME280;26845;50.190;19.178;2023-05-10T13:27:41;98624.86;;;25.27;27.60
41102;BME280;26845;50.190;19.178;2023-05-10T13:30:15;98624.73;;;25.10;27.22
41102;BME280;26845;50.190;19.178;2023-05-10T13:32:48;98630.09;;;25.02;26.97
41102;BME280;26845;50.190;19.178;2023-05-10T13:35:22;98631.08;;;25.01;27.68
41102;BME280;26845;50.190;19.178;2023-05-10T13:37:56;98627.52;;;25.23;27.35
41102;BME280;26845;50.190;19.178;2023-05-10T13:41:01;98619.55;;;25.39;27.53
41102;BME280;26845;50.190;19.178;2023-05-10T13:43:39;98610.05;;;25.21;26.40
41102;BME280;26845;50.190;19.178;2023-05-10T13:46:13;98611.38;;;24.73;26.40
41102;BME280;26845;50.190;19.178;2023-05-10T13:48:47;98613.63;;;24.56;26.57
41102;BME280;26845;50.190;19.178;2023-05-10T13:51:20;98604.73;;;24.59;27.20
41102;BME280;26845;50.190;19.178;2023-05-10T13:53:54;98605.98;;;24.77;27.41
41102;BME280;26845;50.190;19.178;2023-05-10T13:56:39;98600.55;;;24.70;26.58
41102;BME280;26845;50.190;19.178;2023-05-10T13:59:12;98599.71;;;24.47;27.26
41102;BME280;26845;50.190;19.178;2023-05-10T14:01:46;98593.96;;;24.45;27.30
41102;BME280;26845;50.190;19.178;2023-05-10T14:04:19;98594.55;;;24.37;27.28
41102;BME280;26845;50.190;19.178;2023-05-10T14:06:53;98601.10;;;24.25;27.33
41102;BME280;26845;50.190;19.178;2023-05-10T14:09:36;98588.81;;;24.35;27.96
41102;BME280;26845;50.190;19.178;2023-05-10T14:12:40;98592.96;;;24.30;27.33
41102;BME280;26845;50.190;19.178;2023-05-10T14:15:14;98592.37;;;24.20;26.82
41102;BME280;26845;50.190;19.178;2023-05-10T14:17:47;98597.98;;;24.01;27.73
41102;BME280;26845;50.190;19.178;2023-05-10T14:20:21;98591.98;;;24.15;27.49
41102;BME280;26845;50.190;19.178;2023-05-10T14:22:55;98585.30;;;24.07;27.65
41102;BME280;26845;50.190;19.178;2023-05-10T14:25:28;98587.79;;;23.93;27.92
41102;BME280;26845;50.190;19.178;2023-05-10T14:28:14;98588.34;;;23.98;27.87
41102;BME280;26845;50.190;19.178;2023-05-10T14:30:51;98583.03;;;24.07;27.79
41102;BME280;26845;50.190;19.178;2023-05-10T14:33:25;98585.59;;;23.97;26.94
41102;BME280;26845;50.190;19.178;2023-05-10T14:35:59;98584.83;;;23.87;27.54
41102;BME280;26845;50.190;19.178;2023-05-10T14:38:32;98583.02;;;23.93;27.58
41102;BME280;26845;50.190;19.178;2023-05-10T14:41:07;98588.92;;;23.95;27.53
41102;BME280;26845;50.190;19.178;2023-05-10T14:43:41;98581.13;;;23.95;27.84
41102;BME280;26845;50.190;19.178;2023-05-10T14:46:18;98581.33;;;24.04;27.85
41102;BME280;26845;50.190;19.178;2023-05-10T14:48:52;98587.28;;;23.99;27.79
41102;BME280;26845;50.190;19.178;2023-05-10T14:51:27;98582.36;;;23.70;27.46
41102;BME280;26845;50.190;19.178;2023-05-10T14:54:01;98582.86;;;23.59;28.20
41102;BME280;26845;50.190;19.178;2023-05-10T14:56:34;98586.33;;;23.59;27.89
41102;BME280;26845;50.190;19.178;2023-05-10T14:59:08;98581.27;;;23.50;28.02
41102;BME280;26845;50.190;19.178;2023-05-10T15:01:42;98578.66;;;23.54;28.27
41102;BME280;26845;50.190;19.178;2023-05-10T15:04:16;98569.63;;;23.42;28.38
41102;BME280;26845;50.190;19.178;2023-05-10T15:07:17;98575.11;;;23.45;28.43
41102;BME280;26845;50.190;19.178;2023-05-10T15:09:51;98580.15;;;23.41;28.17
41102;BME280;26845;50.190;19.178;2023-05-10T15:12:24;98577.49;;;23.34;28.70
41102;BME280;26845;50.190;19.178;2023-05-10T15:14:58;98581.86;;;23.40;28.30
41102;BME280;26845;50.190;19.178;2023-05-10T15:17:32;98583.77;;;23.18;27.81
41102;BME280;26845;50.190;19.178;2023-05-10T15:20:06;98581.16;;;22.76;27.59
41102;BME280;26845;50.190;19.178;2023-05-10T15:22:40;98585.39;;;22.34;27.91
41102;BME280;26845;50.190;19.178;2023-05-10T15:25:13;98576.98;;;22.13;28.50
41102;BME280;26845;50.190;19.178;2023-05-10T15:27:47;98579.38;;;22.05;28.69
41102;BME280;26845;50.190;19.178;2023-05-10T15:30:21;98580.71;;;21.94;28.45
41102;BME280;26845;50.190;19.178;2023-05-10T15:32:55;98580.05;;;21.70;28.86
41102;BME280;26845;50.190;19.178;2023-05-10T15:35:51;98577.30;;;21.52;29.20
41102;BME280;26845;50.190;19.178;2023-05-10T15:38:25;98576.42;;;21.40;29.26
41102;BME280;26845;50.190;19.178;2023-05-10T15:40:59;98577.13;;;21.31;28.94
41102;BME280;26845;50.190;19.178;2023-05-10T15:43:32;98574.78;;;21.15;29.26
41102;BME280;26845;50.190;19.178;2023-05-10T15:46:06;98580.65;;;21.27;29.52
41102;BME280;26845;50.190;19.178;2023-05-10T15:48:39;98575.64;;;21.34;29.26
41102;BME280;26845;50.190;19.178;2023-05-10T15:51:19;98576.66;;;21.32;29.34
41102;BME280;26845;50.190;19.178;2023-05-10T15:54:18;98582.54;;;21.29;29.46
41102;BME280;26845;50.190;19.178;2023-05-10T15:57:17;98583.69;;;21.08;29.29
41102;BME280;26845;50.190;19.178;2023-05-10T16:00:16;98587.38;;;20.84;30.18
41102;BME280;26845;50.190;19.178;2023-05-10T16:02:56;98586.29;;;20.69;30.27
41102;BME280;26845;50.190;19.178;2023-05-10T16:05:55;98584.92;;;20.70;30.11
41102;BME280;26845;50.190;19.178;2023-05-10T16:08:45;98584.61;;;20.81;30.38
41102;BME280;26845;50.190;19.178;2023-05-10T16:11:25;98585.83;;;20.91;30.61
41102;BME280;26845;50.190;19.178;2023-05-10T16:14:28;98586.19;;;21.09;30.73
41102;BME280;26845;50.190;19.178;2023-05-10T16:17:27;98589.79;;;21.15;30.71
41102;BME280;26845;50.190;19.178;2023-05-10T16:20:26;98594.36;;;21.11;30.65
41102;BME280;26845;50.190;19.178;2023-05-10T16:23:25;98591.00;;;20.93;30.65
41102;BME280;26845;50.190;19.178;2023-05-10T16:26:24;98590.52;;;20.74;30.66
41102;BME280;26845;50.190;19.178;2023-05-10T16:29:05;98591.61;;;20.60;31.20
41102;BME280;26845;50.190;19.178;2023-05-10T16:32:05;98589.91;;;20.46;30.76
41102;BME280;26845;50.190;19.178;2023-05-10T16:35:04;98596.81;;;20.34;31.22
41102;BME280;26845;50.190;19.178;2023-05-10T16:38:01;98599.29;;;20.18;31.30
41102;BME280;26845;50.190;19.178;2023-05-10T16:40:34;98601.17;;;19.98;31.53
41102;BME280;26845;50.190;19.178;2023-05-10T16:43:31;98598.39;;;19.83;31.84
41102;BME280;26845;50.190;19.178;2023-05-10T16:46:08;98604.15;;;19.72;31.63
41102;BME280;26845;50.190;19.178;2023-05-10T16:48:37;98604.05;;;19.67;31.96
41102;BME280;26845;50.190;19.178;2023-05-10T16:51:11;98610.66;;;19.56;32.16
41102;BME280;26845;50.190;19.178;2023-05-10T16:53:44;98610.58;;;19.39;32.03
41102;BME280;26845;50.190;19.178;2023-05-10T16:56:21;98611.81;;;19.30;32.13
41102;BME280;26845;50.190;19.178;2023-05-10T16:58:52;98614.83;;;19.21;32.23
41102;BME280;26845;50.190;19.178;2023-05-10T17:01:41;98615.64;;;19.11;32.66
41102;BME280;26845;50.190;19.178;2023-05-10T17:04:15;98612.59;;;19.02;32.83
41102;BME280;26845;50.190;19.178;2023-05-10T17:06:48;98618.33;;;18.94;32.86
41102;BME280;26845;50.190;19.178;2023-05-10T17:09:22;98622.25;;;18.83;32.90
41102;BME280;26845;50.190;19.178;2023-05-10T17:11:56;98619.90;;;18.69;33.20
41102;BME280;26845;50.190;19.178;2023-05-10T17:14:30;98621.86;;;18.53;33.18
41102;BME280;26845;50.190;19.178;2023-05-10T17:17:06;98625.11;;;18.40;33.24
41102;BME280;26845;50.190;19.178;2023-05-10T17:19:37;98625.06;;;18.35;33.40
41102;BME280;26845;50.190;19.178;2023-05-10T17:22:11;98628.19;;;18.25;33.78
41102;BME280;26845;50.190;19.178;2023-05-10T17:24:47;98630.53;;;18.14;33.72
41102;BME280;26845;50.190;19.178;2023-05-10T17:27:18;98626.90;;;18.05;33.94
41102;BME280;26845;50.190;19.178;2023-05-10T17:29:55;98631.34;;;17.94;33.94
41102;BME280;26845;50.190;19.178;2023-05-10T17:32:28;98628.71;;;17.83;34.24
41102;BME280;26845;50.190;19.178;2023-05-10T17:34:59;98633.02;;;17.76;34.27
41102;BME280;26845;50.190;19.178;2023-05-10T17:37:33;98635.48;;;17.68;34.47
41102;BME280;26845;50.190;19.178;2023-05-10T17:40:06;98638.20;;;17.60;34.34
41102;BME280;26845;50.190;19.178;2023-05-10T17:42:43;98637.06;;;17.52;34.47
41102;BME280;26845;50.190;19.178;2023-05-10T17:45:14;98639.33;;;17.42;34.65
41102;BME280;26845;50.190;19.178;2023-05-10T17:47:47;98639.36;;;17.36;34.82
41102;BME280;26845;50.190;19.178;2023-05-10T17:50:21;98640.27;;;17.30;34.97
41102;BME280;26845;50.190;19.178;2023-05-10T17:52:58;98648.44;;;17.18;35.18
41102;BME280;26845;50.190;19.178;2023-05-10T17:58:02;98654.09;;;17.00;35.18
41102;BME280;26845;50.190;19.178;2023-05-10T18:00:36;98654.04;;;16.99;35.38
41102;BME280;26845;50.190;19.178;2023-05-10T18:03:10;98657.54;;;16.97;35.54
41102;BME280;26845;50.190;19.178;2023-05-10T18:05:43;98662.52;;;16.99;36.24
41102;BME280;26845;50.190;19.178;2023-05-10T18:08:17;98662.19;;;16.94;35.73
41102;BME280;26845;50.190;19.178;2023-05-10T18:10:50;98665.55;;;16.88;35.85
41102;BME280;26845;50.190;19.178;2023-05-10T18:21:05;98670.00;;;16.68;36.22